• Join FlightAware (Why Join?)
  • Login
  • US Flag 
07:31AM EDT


 

Airport Tracker/Info


-or-


 

Live Flight TrackerFlight Track Log ✈ ASH2638 ✈ 10-Apr-2013 ✈ KPHX - KONT

Flight Track Log - Related Links

Times and Time Zones

All times are in EDT time to prevent confusion due to time zone crossing. See the ASH2638 flight status page for this flight to view local times or setup timezone preferences in your user account.

Time Position Orientation Groundspeed Altitude Reporting Facility
EDT Latitude Longitude Course Direction KTS MPH feet Rate Location/Type
05:37PM 33.4333 -112.0333 273° West 171 197 1,900  Level Phoenix TRACON
05:37PM 33.4228 -112.0631 247° West 175 201 2,400 1,920 Climbing Albuquerque Center
05:38PM 33.4006 -112.1428 252° West 247 284 4,900 2,520 Climbing Albuquerque Center
05:39PM 33.4333 -112.3167 270° West  Level FlightAware Approximate
05:39PM 33.4011 -112.2322 270° West 271 312 7,700  Level Albuquerque Center
05:40PM 33.4350 -112.4221 273° West  Level FlightAware Approximate
05:40PM 33.4094 -112.3250 276° West 279 321 10,400  Level Albuquerque Center
05:41PM 33.4393 -112.5276 273° West  Level FlightAware Approximate
05:41PM 33.4178 -112.4228 276° West 292 336 13,100  Level Albuquerque Center
05:42PM 33.4435 -112.6330 273° West  Level FlightAware Approximate
05:42PM 33.4269 -112.5339 276° West 336 387 14,400  Level Albuquerque Center
05:43PM 33.4392 -112.6617 277° West 361 415 16,400 2,220 Climbing Albuquerque Center
05:44PM 33.4497 -112.7869 276° West 374 430 19,000 2,460 Climbing Albuquerque Center
05:45PM 33.4747 -112.9300 282° West 370 426 21,500 1,980 Climbing Albuquerque Center
05:46PM 33.4978 -113.0497 283° West 370 426 23,200 1,440 Climbing Albuquerque Center
05:47PM 33.5206 -113.1733 282° West 378 435 24,500 1,380 Climbing Albuquerque Center
05:48PM 33.5450 -113.2997 283° West 387 445 26,100 1,320 Climbing Albuquerque Center
05:49PM 33.5689 -113.4272 283° West 393 452 27,300 1,140 Climbing Albuquerque Center
05:51PM 33.5986 -113.5864 283° West 405 466 28,500 1,080 Climbing Albuquerque Center
05:52PM 33.6244 -113.7208 283° West 417 480 29,600 1,020 Climbing Albuquerque Center
05:53PM 33.6447 -113.8625 280° West 428 493 30,600 1,020 Climbing Albuquerque Center
05:54PM 33.6586 -114.0067 277° West 434 499 31,700 660 Climbing Albuquerque Center
05:55PM 33.6717 -114.1508 276° West 434 499 32,000 120 Climbing Albuquerque Center
05:56PM 33.6878 -114.3006 277° West 443 510 32,000  Level Albuquerque Center
05:57PM 33.7003 -114.4481 276° West 446 513 32,000  Level Albuquerque Center
05:58PM 33.7208 -114.6411 277° West 449 517 32,000  Level Los Angeles Center
05:59PM 33.7336 -114.7894 276° West 449 517 32,000  Level Los Angeles Center
06:00PM 33.7486 -114.9381 277° West 449 517 32,000  Level Los Angeles Center
06:01PM 33.7611 -115.0861 276° West 448 516 32,000  Level Los Angeles Center
06:02PM 33.7733 -115.2342 276° West 447 514 32,000  Level Los Angeles Center
06:03PM 33.7858 -115.3800 276° West 443 510 32,000  Level Los Angeles Center
06:04PM 33.8006 -115.5564 276° West 444 511 32,000  Level Los Angeles Center
06:05PM 33.8128 -115.7014 276° West 440 506 32,000 -360 Level Los Angeles Center
06:06PM 33.8247 -115.8481 276° West 442 509 31,300 -1,560 Descending Los Angeles Center
06:07PM 33.8364 -115.9914 276° West 434 499 28,900 -2,280 Descending Los Angeles Center
06:08PM 33.8472 -116.1244 276° West 407 468 26,600 -2,520 Descending Los Angeles Center
06:09PM 33.8581 -116.2731 275° West 379 436 23,700 -2,580 Descending Los Angeles Center
06:10PM 33.8686 -116.3956 276° West 370 426 21,300 -2,340 Descending Los Angeles Center
06:11PM 33.8756 -116.5153 274° West 362 417 18,900 -2,280 Descending Los Angeles Center
06:12PM 33.8808 -116.6353 273° West 362 417 16,600 -2,340 Descending Los Angeles Center
06:13PM 33.8858 -116.7550 273° West 361 415 14,100 -1,260 Descending Los Angeles Center
06:14PM 33.8908 -116.8631 273° West 326 375 14,000 -1,080 Descending Los Angeles Center
06:15PM 33.9000 -116.9833 275° West 296 341 11,900 -1,920 Descending Southern California TRACON
06:16PM 33.9000 -117.0833 270° West 302 348 10,100 -2,100 Descending Southern California TRACON
06:17PM 33.9500 -117.1500 312° West 284 327 7,800 -1,920 Descending Southern California TRACON
06:18PM 34.0167 -117.2000 328° Northwest 256 295 6,100 -900 Descending Southern California TRACON
06:19PM 34.0500 -117.2500 309° West 231 266 6,000 -480 Descending Southern California TRACON
06:20PM 34.0500 -117.3167 270° West 227 261 5,300 -1,020 Descending Southern California TRACON
06:21PM 34.0500 -117.4000 270° West 231 266 4,000 -1,200 Descending Southern California TRACON
06:22PM 34.0500 -117.4667 270° West 196 226 2,900 -960 Descending Southern California TRACON
06:23PM 34.0500 -117.5167 270° West 137 158 2,100 -840 Descending Southern California TRACON
06:24PM 34.0500 -117.5667 270° West 136 157 1,300 -840 Descending Southern California TRACON
06:27PM 34.0500 -117.6000 270° West  Level FlightAware Approximate